createdAt,value
2019-04-05T00:04:20.576Z,9.10
2019-04-05T00:09:42.127Z,9.57
2019-04-05T00:15:15.206Z,9.60
2019-04-05T00:20:29.915Z,9.50
2019-04-05T00:25:52.858Z,8.57
2019-04-05T00:31:15.190Z,9.10
2019-04-05T00:36:36.926Z,10.27
2019-04-05T00:41:58.958Z,9.53
2019-04-05T00:47:21.966Z,9.43
2019-04-05T00:52:44.488Z,8.50
2019-04-05T00:58:06.809Z,8.53
2019-04-05T01:03:29.857Z,9.17
2019-04-05T01:08:51.430Z,9.63
2019-04-05T01:14:13.271Z,8.37
2019-04-05T01:19:37.619Z,9.43
2019-04-05T01:25:00.809Z,8.77
2019-04-05T01:30:25.649Z,9.30
2019-04-05T01:35:48.913Z,9.13
2019-04-05T01:41:13.775Z,9.30
2019-04-05T01:46:36.648Z,9.00
2019-04-05T01:51:58.932Z,8.27
2019-04-05T01:57:20.222Z,8.27
2019-04-05T02:02:44.234Z,8.57
2019-04-05T02:08:06.075Z,8.17
2019-04-05T02:13:30.276Z,8.20
2019-04-05T02:18:57.240Z,8.10
2019-04-05T02:24:19.259Z,7.80
2019-04-05T02:29:41.716Z,8.97
2019-04-05T02:35:04.709Z,9.23
2019-04-05T02:40:27.523Z,8.63
2019-04-05T02:45:51.134Z,9.53
2019-04-05T02:51:16.967Z,9.03
2019-04-05T02:56:42.024Z,10.93
2019-04-05T03:02:05.631Z,9.13
2019-04-05T03:07:29.311Z,8.40
2019-04-05T03:12:51.355Z,9.83
2019-04-05T03:18:15.306Z,10.77
2019-04-05T03:23:41.267Z,11.30
2019-04-05T03:29:08.466Z,9.57
2019-04-05T03:34:31.759Z,9.13
2019-04-05T03:39:56.681Z,13.00
2019-04-05T03:45:18.659Z,11.00
2019-04-05T03:50:45.340Z,8.83
2019-04-05T03:56:08.223Z,9.77
2019-04-05T04:01:34.440Z,9.73
2019-04-05T04:06:57.670Z,9.87
2019-04-05T04:12:21.279Z,9.10
2019-04-05T04:17:43.366Z,11.27
2019-04-05T04:23:10.105Z,10.93
2019-04-05T04:28:36.252Z,9.30
2019-04-05T04:34:02.208Z,10.43
2019-04-05T04:39:24.341Z,8.40
2019-04-05T04:44:47.098Z,8.70
2019-04-05T04:50:10.497Z,8.77
2019-04-05T04:55:32.201Z,8.80
2019-04-05T05:00:56.371Z,9.33
2019-04-05T05:06:17.951Z,9.37
2019-04-05T05:11:40.514Z,9.27
2019-04-05T05:17:03.356Z,9.40
2019-04-05T05:22:24.925Z,9.73
2019-04-05T05:27:47.044Z,11.07
2019-04-05T05:33:21.550Z,10.23
2019-04-05T05:38:44.288Z,10.47
2019-04-05T05:44:05.768Z,9.90
2019-04-05T05:49:27.504Z,8.13
2019-04-05T05:54:49.109Z,8.50
2019-04-05T06:00:14.246Z,8.73
2019-04-05T06:05:35.669Z,8.37
2019-04-05T06:10:57.876Z,9.47
2019-04-05T06:16:46.694Z,9.48
2019-04-05T06:22:08.347Z,11.60
2019-04-05T06:27:41.210Z,9.48
2019-04-05T06:33:04.644Z,12.65
2019-04-05T06:38:28.788Z,11.78
2019-04-05T06:43:53.250Z,12.53
2019-04-05T06:50:02.447Z,15.75
2019-04-05T06:55:26.760Z,20.30
2019-04-05T07:00:57.367Z,21.90
2019-04-05T07:06:30.571Z,22.10
2019-04-05T07:11:53.139Z,19.20
2019-04-05T07:17:16.118Z,14.90
2019-04-05T07:22:42.702Z,15.20
2019-04-05T07:28:04.708Z,12.73
2019-04-05T07:33:27.303Z,11.43
2019-04-05T07:38:51.221Z,11.12
2019-04-05T07:44:25.553Z,9.53
2019-04-05T07:49:54.321Z,10.25
2019-04-05T07:55:30.021Z,9.23
2019-04-05T08:00:56.123Z,10.15
2019-04-05T08:06:22.899Z,8.70
2019-04-05T08:11:46.399Z,9.20
2019-04-05T08:17:09.314Z,9.63
2019-04-05T08:22:32.614Z,8.55
2019-04-05T08:27:54.647Z,9.18
2019-04-05T08:33:16.269Z,9.43
2019-04-05T08:38:39.819Z,9.70
2019-04-05T08:44:01.602Z,9.07
2019-04-05T08:49:25.522Z,9.40
2019-04-05T08:54:50.417Z,9.00
2019-04-05T09:00:31.981Z,10.33
2019-04-05T09:05:57.847Z,8.98
2019-04-05T09:11:22.077Z,8.78
2019-04-05T09:16:49.330Z,8.55
2019-04-05T09:22:11.884Z,7.85
2019-04-05T09:27:34.989Z,8.75
2019-04-05T09:33:03.715Z,9.08
2019-04-05T09:38:31.039Z,7.50
2019-04-05T09:43:55.029Z,7.42
2019-04-05T09:49:21.296Z,6.70
2019-04-05T09:54:45.634Z,8.20
2019-04-05T10:00:14.523Z,7.92
2019-04-05T10:05:38.340Z,6.78
2019-04-05T10:10:59.908Z,6.97
2019-04-05T10:16:23.047Z,6.45
2019-04-05T10:21:44.654Z,7.87
2019-04-05T10:27:06.305Z,7.45
2019-04-05T10:32:28.776Z,8.90
2019-04-05T10:37:50.071Z,10.48
2019-04-05T10:43:13.032Z,14.47
2019-04-05T10:48:38.917Z,12.13
2019-04-05T10:54:00.056Z,21.42
2019-04-05T10:59:23.854Z,7.75
2019-04-05T11:04:46.189Z,7.75
2019-04-05T11:10:17.120Z,7.92
2019-04-05T11:15:40.182Z,7.22
2019-04-05T11:21:02.837Z,6.95
2019-04-05T11:26:25.177Z,7.75
2019-04-05T11:32:25.379Z,5.22
2019-04-05T11:37:52.937Z,7.35
2019-04-05T11:43:19.234Z,7.25
2019-04-05T11:48:45.371Z,6.50
2019-04-05T11:54:08.365Z,7.87
2019-04-05T11:59:30.857Z,6.95
2019-04-05T12:04:56.430Z,7.85
2019-04-05T12:10:22.998Z,7.90
2019-04-05T12:15:49.962Z,6.85
2019-04-05T12:21:12.957Z,7.12
2019-04-05T12:26:38.524Z,7.60
2019-04-05T12:32:05.707Z,7.87
2019-04-05T12:37:29.549Z,7.55
2019-04-05T12:43:02.575Z,7.35
2019-04-05T12:48:26.784Z,6.83
2019-04-05T12:53:56.529Z,9.18
2019-04-05T12:59:17.923Z,7.03
2019-04-05T13:04:45.061Z,7.00
2019-04-05T13:10:08.005Z,7.75
2019-04-05T13:15:31.442Z,7.90
2019-04-05T13:20:54.207Z,7.37
2019-04-05T13:26:15.867Z,7.60
2019-04-05T13:31:40.271Z,7.95
2019-04-05T13:37:02.004Z,8.00
2019-04-05T13:42:23.401Z,8.13
2019-04-05T13:47:45.716Z,7.87
2019-04-05T13:53:11.165Z,7.97
2019-04-05T13:58:33.969Z,6.80
2019-04-05T14:03:56.260Z,9.90
2019-04-05T14:09:18.158Z,12.80
2019-04-05T14:14:41.551Z,10.18
2019-04-05T14:20:05.731Z,8.13
2019-04-05T14:25:30.140Z,8.58
2019-04-05T14:30:53.724Z,9.18
2019-04-05T14:36:15.342Z,7.50
2019-04-05T14:41:37.061Z,10.00
2019-04-05T14:46:58.773Z,10.10
2019-04-05T14:52:21.012Z,10.25
2019-04-05T14:57:42.450Z,10.85
2019-04-05T15:03:03.946Z,9.30
2019-04-05T15:08:26.090Z,9.83
2019-04-05T15:13:47.394Z,10.58
2019-04-05T15:19:09.354Z,14.58
2019-04-05T15:24:31.113Z,10.32
2019-04-05T15:29:55.352Z,9.43
2019-04-05T15:35:38.873Z,10.48
2019-04-05T15:41:00.548Z,8.65
2019-04-05T15:46:22.423Z,10.72
2019-04-05T15:51:46.389Z,10.85
2019-04-05T15:57:07.624Z,10.30
2019-04-05T16:02:33.011Z,13.10
2019-04-05T16:07:54.034Z,11.73
2019-04-05T16:13:16.316Z,12.58
2019-04-05T16:18:40.028Z,13.70
2019-04-05T16:24:02.226Z,15.48
2019-04-05T16:29:31.175Z,10.70
2019-04-05T16:34:53.481Z,13.98
2019-04-05T16:40:16.610Z,14.87
2019-04-05T16:45:38.993Z,14.58
2019-04-05T16:51:01.266Z,26.95
2019-04-05T16:56:24.191Z,38.60
2019-04-05T17:01:47.337Z,37.67
2019-04-05T17:07:10.097Z,22.85
2019-04-05T17:12:34.617Z,16.10
2019-04-05T17:18:00.630Z,17.62
2019-04-05T17:23:22.797Z,19.52
2019-04-05T17:28:45.034Z,20.00
2019-04-05T17:34:08.754Z,17.75
2019-04-05T17:39:30.861Z,24.23
2019-04-05T17:44:56.940Z,36.75
2019-04-05T17:50:30.769Z,31.35
2019-04-05T17:55:52.853Z,59.85
2019-04-05T18:01:22.469Z,34.98
2019-04-05T18:06:46.192Z,26.27
2019-04-05T18:12:07.939Z,23.32
2019-04-05T18:17:29.869Z,21.07
2019-04-05T18:22:51.689Z,25.32
2019-04-05T18:28:17.105Z,26.85
2019-04-05T18:33:41.132Z,26.87
2019-04-05T18:39:05.796Z,32.45
2019-04-05T18:44:27.382Z,26.97
2019-04-05T18:50:02.486Z,25.27
2019-04-05T18:55:35.570Z,22.70
2019-04-05T19:00:58.013Z,20.50
2019-04-05T19:06:20.793Z,20.85
2019-04-05T19:11:44.433Z,23.40
2019-04-05T19:17:08.244Z,33.23
2019-04-05T19:22:30.527Z,25.05
2019-04-05T19:27:53.406Z,21.75
2019-04-05T19:49:38.986Z,18.57
2019-04-05T19:55:03.875Z,17.65
2019-04-05T20:00:28.039Z,15.93
2019-04-05T20:05:54.997Z,15.40
2019-04-05T20:11:18.023Z,15.93
2019-04-05T20:16:40.854Z,22.17
2019-04-05T20:22:09.117Z,20.30
2019-04-05T20:27:31.689Z,20.00
2019-04-05T20:32:54.663Z,15.37
2019-04-05T20:38:17.004Z,16.85
2019-04-05T20:43:42.795Z,15.45
2019-04-05T20:49:06.128Z,15.83
2019-04-05T20:54:27.846Z,14.40
2019-04-05T20:59:50.327Z,16.07
2019-04-05T21:05:12.230Z,13.53
2019-04-05T21:10:34.576Z,13.23
2019-04-05T21:15:57.023Z,14.07
2019-04-05T21:21:19.882Z,15.13
2019-04-05T21:26:41.484Z,15.20
2019-04-05T21:32:03.645Z,14.15
2019-04-05T21:37:26.166Z,14.50
2019-04-05T21:42:49.102Z,18.67
2019-04-05T21:48:11.107Z,20.17
2019-04-05T21:53:32.537Z,21.17
2019-04-05T21:58:54.424Z,17.87
2019-04-05T22:04:15.733Z,21.53
2019-04-05T22:09:39.513Z,17.20
2019-04-05T22:15:01.362Z,15.03
2019-04-05T22:20:25.074Z,13.53
2019-04-05T22:25:47.309Z,13.17
2019-04-05T22:31:08.900Z,13.27
2019-04-05T22:36:30.468Z,12.90
2019-04-05T22:41:52.749Z,13.60
2019-04-05T22:47:14.273Z,12.77
2019-04-05T22:52:35.891Z,13.87
2019-04-05T22:57:58.704Z,13.40
2019-04-05T23:03:20.626Z,14.10
2019-04-05T23:08:43.343Z,14.03
2019-04-05T23:14:04.875Z,14.33
2019-04-05T23:19:26.826Z,13.67
2019-04-05T23:24:49.987Z,13.80
2019-04-05T23:30:11.498Z,15.70
2019-04-05T23:35:33.339Z,13.80
2019-04-05T23:40:55.347Z,13.77
2019-04-05T23:46:17.170Z,13.67
2019-04-05T23:51:39.318Z,13.73
2019-04-05T23:57:02.473Z,12.63
